Flight Track Log - Related Links

Times and Time Zones

All times are in EDT time to prevent confusion due to time zone crossing. See the ASQ6115 flight status page for this flight to view local times or setup timezone preferences in your user account.

Time Position Orientation Groundspeed Altitude Reporting Facility
EDT Latitude Longitude Course Direction KTS MPH feet Rate Location/Type
Fri 09:24:29 AM 29.9767 -95.3008 32° Northeast 152 175 500  Level Houston Center
Fri 09:25:06 AM 29.9928 -95.2792 49° Northeast 188 216 1,300 1,364 Climbing Houston Center
Fri 09:25:35 AM 30.0311 -95.2772 North 247 284 2,000 1,355 Climbing Houston Center
Fri 09:26:08 AM 30.0575 -95.2747 North 239 275 2,700 2,262 Climbing Houston Center
Fri 09:26:36 AM 30.1019 -95.2686 North 247 284 4,300 1,967 Climbing Houston Center
Fri 09:27:00 AM 30.2047 -95.0632 41° Northeast  Level Estimated
Fri 09:27:09 AM 30.1275 -95.2675 North 249 287 4,700  Level Houston Center
Fri 09:27:37 AM 30.1789 -95.2617 North 286 329 6,000 2,262 Climbing Houston Center
Fri 09:28:00 AM 30.2779 -94.9702 35° Northeast  Level Estimated
Fri 09:28:10 AM 30.2217 -95.2583 North 279 321 7,000  Level Houston Center
Fri 09:29:00 AM 30.3511 -94.8770 32° Northeast  Level Estimated
Fri 09:29:12 AM 30.3058 -95.2519 North 300 345 8,700  Level Houston Center
Fri 09:30:14 AM 30.3933 -95.2583 356° North 314 361 10,300 1,122 Climbing Houston Center
Fri 09:31:15 AM 30.4817 -95.2622 358° North 337 388 11,000 829 Climbing Houston Center
Fri 09:32:17 AM 30.5989 -95.2217 17° North 390 449 12,000 976 Climbing Houston Center
Fri 09:33:18 AM 30.6917 -95.1536 32° Northeast 391 450 13,000 1,171 Climbing Houston Center
Fri 09:34:20 AM 30.7833 -95.0864 32° Northeast 389 448 14,400 1,366 Climbing Houston Center
Fri 09:35:21 AM 30.8522 -94.9953 49° Northeast 380 437 15,800 1,268 Climbing Houston Center
Fri 09:36:23 AM 30.9083 -94.8950 57° Northeast 372 428 17,000 1,024 Climbing Houston Center
Fri 09:37:24 AM 30.9847 -94.8103 44° Northeast 383 441 17,900 878 Climbing Houston Center
Fri 09:38:26 AM 31.0739 -94.7314 37° Northeast 401 461 18,800 852 Climbing Houston Center
Fri 09:39:59 AM 31.2175 -94.6031 37° Northeast 412 474 20,100 829 Climbing Fort Center
Fri 09:40:29 AM 31.2694 -94.5575 37° Northeast 416 479 20,500 783 Climbing Houston Center
Fri 09:41:31 AM 31.3603 -94.4781 37° Northeast 412 474 21,300 780 Climbing Houston Center
Fri 09:42:32 AM 31.4525 -94.3964 37° Northeast 415 478 22,100 780 Climbing Houston Center
Fri 09:43:34 AM 31.5439 -94.3142 37° Northeast 415 478 22,900 919 Climbing Houston Center
Fri 09:44:36 AM 31.6544 -94.2161 37° Northeast 414 476 24,000 976 Climbing Houston Center
Fri 09:45:37 AM 31.7450 -94.1339 38° Northeast 412 474 24,900 829 Climbing Houston Center
Fri 09:46:39 AM 31.8275 -94.0600 37° Northeast 408 470 25,700 829 Climbing Houston Center
Fri 09:47:40 AM 31.9175 -93.9794 37° Northeast 406 467 26,600 878 Climbing Houston Center
Fri 09:48:42 AM 32.0056 -93.9000 37° Northeast 401 461 27,500 919 Climbing Houston Center
Fri 09:49:44 AM 32.1003 -93.8136 38° Northeast 399 459 28,500 732 Climbing Houston Center
Fri 09:50:45 AM 32.1878 -93.7322 38° Northeast 399 459 29,000 222 Climbing Houston Center
Fri 09:51:59 AM 32.2992 -93.5867 48° Northeast 415 478 29,000  Level Fort Center
Fri 09:52:59 AM 32.3817 -93.4800 47° Northeast 422 486 29,000  Level Fort Center
Fri 09:53:59 AM 32.4681 -93.3728 46° Northeast 435 501 29,000  Level Fort Center
Fri 09:54:59 AM 32.5561 -93.2581 48° Northeast 443 510 29,000 300 Level Fort Center
Fri 09:55:59 AM 32.6375 -93.1358 52° Northeast 454 522 29,600 950 Climbing Fort Center
Fri 09:56:59 AM 32.7128 -93.0139 54° Northeast 460 529 30,900 700 Climbing Fort Center
Fri 09:57:59 AM 32.7836 -92.8992 54° Northeast 447 514 31,000 250 Climbing Fort Center
Fri 09:58:59 AM 32.8583 -92.7717 55° Northeast 447 514 31,400 700 Climbing Fort Center
Fri 09:59:59 AM 32.9311 -92.6542 54° Northeast 447 514 32,400 1,000 Climbing Fort Center
Fri 10:00:59 AM 32.9997 -92.5342 56° Northeast 440 506 33,400 746 Climbing Fort Center
Fri 10:03:28 AM 33.1733 -92.2486 54° Northeast 422 486 35,000 459 Climbing Memphis Center
Fri 10:04:28 AM 33.2397 -92.1406 54° Northeast 440 506 35,000  Level Memphis Center
Fri 10:05:28 AM 33.3164 -92.0153 54° Northeast 455 524 35,000  Level Memphis Center
Fri 10:06:28 AM 33.3892 -91.8897 55° Northeast 460 529 35,000  Level Memphis Center
Fri 10:07:28 AM 33.4614 -91.7692 54° Northeast 454 522 35,000  Level Memphis Center
Fri 10:08:28 AM 33.5339 -91.6331 57° Northeast 441 507 35,000  Level Memphis Center
Fri 10:09:28 AM 33.6081 -91.5094 54° Northeast 441 507 35,000  Level Memphis Center
Fri 10:10:28 AM 33.6781 -91.3856 56° Northeast 448 516 35,000  Level Memphis Center
Fri 10:11:28 AM 33.7542 -91.2617 54° Northeast 448 516 35,000  Level Memphis Center
Fri 10:12:28 AM 33.8261 -91.1322 56° Northeast 453 521 35,000  Level Memphis Center
Fri 10:13:28 AM 33.8997 -91.0053 55° Northeast 458 527 35,000  Level Memphis Center
Fri 10:14:28 AM 33.9756 -90.8731 55° Northeast 472 543 35,000  Level Memphis Center
Fri 10:15:28 AM 34.0511 -90.7433 55° Northeast 472 543 35,000  Level Memphis Center
Fri 10:16:28 AM 34.1181 -90.6256 56° Northeast 472 543 35,000  Level Memphis Center
Fri 10:17:28 AM 34.1914 -90.4978 55° Northeast 467 537 35,000  Level Memphis Center
Fri 10:18:28 AM 34.2625 -90.3697 56° Northeast 462 532 35,000  Level Memphis Center
Fri 10:19:28 AM 34.3356 -90.2414 55° Northeast 457 526 35,000  Level Memphis Center
Fri 10:20:28 AM 34.4061 -90.1156 56° Northeast 458 527 35,000  Level Memphis Center
Fri 10:21:28 AM 34.4789 -89.9817 57° Northeast 463 533 35,000  Level Memphis Center
Fri 10:22:28 AM 34.5514 -89.8528 56° Northeast 463 533 35,000  Level Memphis Center
Fri 10:23:28 AM 34.6197 -89.7261 57° Northeast 456 525 35,000  Level Memphis Center
Fri 10:24:28 AM 34.6919 -89.5944 56° Northeast 464 534 35,000  Level Memphis Center
Fri 10:25:28 AM 34.7661 -89.4622 56° Northeast 464 534 35,000  Level Memphis Center
Fri 10:26:28 AM 34.8383 -89.3325 56° Northeast 464 534 35,000  Level Memphis Center
Fri 10:27:28 AM 34.9103 -89.2050 55° Northeast 464 534 35,000  Level Memphis Center
Fri 10:28:28 AM 34.9839 -89.0719 56° Northeast 464 534 35,000  Level Memphis Center
Fri 10:29:28 AM 35.0636 -88.9261 56° Northeast 464 534 35,000  Level Memphis Center
Fri 10:30:28 AM 35.1392 -88.7903 56° Northeast 469 540 35,000 -50 Level Memphis Center
Fri 10:31:28 AM 35.2083 -88.6569 58° Northeast 463 533 34,900 -800 Descending Memphis Center
Fri 10:32:28 AM 35.2817 -88.5231 56° Northeast 463 533 33,400 -1,400 Descending Memphis Center
Fri 10:33:28 AM 35.3444 -88.4122 55° Northeast 457 526 32,100 -1,450 Descending Memphis Center
Fri 10:34:28 AM 35.4172 -88.2653 59° Northeast 457 526 30,500 -1,550 Descending Memphis Center
Fri 10:35:28 AM 35.4881 -88.1386 55° Northeast 457 526 29,000 -1,500 Descending Memphis Center
Fri 10:36:28 AM 35.5608 -88.0092 55° Northeast 452 520 27,500 -1,950 Descending Memphis Center
Fri 10:37:28 AM 35.6289 -87.8719 59° Northeast 457 526 25,100 -2,400 Descending Memphis Center
Fri 10:38:28 AM 35.6994 -87.7419 56° Northeast 460 529 22,700 -2,450 Descending Memphis Center
Fri 10:39:28 AM 35.7633 -87.6194 57° Northeast 437 503 20,200 -2,450 Descending Memphis Center
Fri 10:40:28 AM 35.8192 -87.5000 60° Northeast 418 481 17,800 -2,450 Descending Memphis Center
Fri 10:41:28 AM 35.8661 -87.3728 65° Northeast 403 464 15,300 -1,950 Descending Memphis Center
Fri 10:42:28 AM 35.9092 -87.2611 65° Northeast 392 451 13,900 -1,600 Descending Memphis Center
Fri 10:43:28 AM 35.9542 -87.1364 66° East 397 457 12,100 -1,500 Descending Memphis Center
Fri 10:44:28 AM 35.9972 -87.0294 64° Northeast 374 430 10,900 -1,350 Descending Memphis Center
Fri 10:45:28 AM 36.0383 -86.9328 62° Northeast 330 380 9,400 -2,023 Descending Memphis Center
Fri 10:47:20 AM 36.1333 -86.7833 52° Northeast 269 310 5,100 -1,600 Descending Nashville TRACON
Fri 10:48:28 AM 36.2003 -86.7614 15° North 245 282 4,600 -750 Descending Memphis Center
Fri 10:49:28 AM 36.2533 -86.7231 30° Northeast 227 261 3,500 -1,000 Descending Memphis Center
Fri 10:50:28 AM 36.2450 -86.6514 98° East 170 196 2,600 -900 Descending Memphis Center
Fri 10:51:28 AM 36.1950 -86.6561 184° South 117 135 1,700 -750 Descending Memphis Center
Fri 10:52:28 AM 36.1558 -86.6708 197° South 130 150 1,100 -500 Descending Memphis Center
Fri 10:53:28 AM 36.1208 -86.6828 195° South 135 155 700 -400 Descending Memphis Center

Login

Don't have an account? Register now (free) for customized features, flight alerts, and more!